Time;durP1;ratioP1;P1;durP2;ratioP2;P2;SDS_P1;SDS_P2;PMS_P1;PMS_P2;Temp;Humidity;BMP_temperature;BMP_pressure;BME280_temperature;BME280_humidity;BME280_pressure;Samples;Min_cycle;Max_cycle;Signal;HPM_P1;HPM_P2
2022/04/17 00:00:00;;;;;;;349.48;183.30;;;;;;;18.20;45.59;99243.63;343507;28;1282;-72
2022/04/17 00:00:11;;;;;;;349.48;183.13;;;;;;;18.16;45.68;99244.00;344754;28;2324;-72
2022/04/17 00:00:22;;;;;;;349.75;184.50;;;;;;;18.15;45.67;99240.50;345299;28;1710;-72
2022/04/17 00:00:32;;;;;;;350.50;184.13;;;;;;;18.16;45.68;99242.19;344148;28;1895;-72
2022/04/17 00:00:43;;;;;;;350.83;185.23;;;;;;;18.16;45.76;99244.84;347428;28;1238;-72
2022/04/17 00:00:55;;;;;;;349.27;182.55;;;;;;;18.18;45.66;99245.56;346268;28;855;-72
2022/04/17 00:01:05;;;;;;;345.80;179.57;;;;;;;18.18;45.64;99240.28;344176;28;1493;-72
2022/04/17 00:01:16;;;;;;;344.38;178.50;;;;;;;18.19;45.55;99239.31;342873;28;857;-72
2022/04/17 00:01:28;;;;;;;345.53;180.10;;;;;;;18.19;45.79;99244.63;345077;28;873;-72
2022/04/17 00:01:38;;;;;;;348.80;184.93;;;;;;;18.22;45.52;99238.19;346063;28;1310;-72
2022/04/17 00:01:49;;;;;;;349.95;182.68;;;;;;;18.24;45.52;99233.63;346310;28;734;-72
2022/04/17 00:02:00;;;;;;;350.63;185.67;;;;;;;18.23;45.68;99240.72;346212;28;1467;-72
2022/04/17 00:02:11;;;;;;;347.92;187.57;;;;;;;18.23;45.49;99239.88;346427;28;939;-72
2022/04/17 00:02:23;;;;;;;348.93;188.40;;;;;;;18.19;45.59;99244.63;344835;28;1203;-72
2022/04/17 00:02:33;;;;;;;347.65;184.13;;;;;;;18.17;45.72;99240.41;344840;28;1918;-72
2022/04/17 00:02:44;;;;;;;345.60;181.57;;;;;;;18.14;45.58;99236.19;345204;28;1177;-72
2022/04/17 00:02:54;;;;;;;345.85;184.68;;;;;;;18.11;45.65;99244.38;346293;28;801;-72
2022/04/17 00:03:06;;;;;;;348.83;187.23;;;;;;;18.09;45.44;99238.34;342189;28;1176;-72
2022/04/17 00:03:17;;;;;;;351.90;187.43;;;;;;;18.10;45.78;99245.31;346163;28;1398;-72
2022/04/17 00:03:28;;;;;;;352.20;186.15;;;;;;;18.09;45.58;99241.00;344992;28;821;-72
2022/04/17 00:03:38;;;;;;;351.08;185.88;;;;;;;18.11;45.76;99241.72;344952;28;1078;-72
2022/04/17 00:03:49;;;;;;;348.83;184.32;;;;;;;18.12;45.84;99238.09;345231;28;1653;-72
2022/04/17 00:03:59;;;;;;;348.37;182.10;;;;;;;18.14;45.53;99235.34;345948;28;927;-72
2022/04/17 00:04:14;;;;;;;348.13;180.87;;;;;;;18.15;45.51;99227.28;347724;28;793;-72
2022/04/17 00:04:25;;;;;;;346.55;179.65;;;;;;;18.17;45.38;99243.88;344998;28;986;-72
2022/04/17 00:04:35;;;;;;;348.33;176.95;;;;;;;18.17;45.40;99238.59;342385;28;849;-72
2022/04/17 00:04:46;;;;;;;349.50;174.23;;;;;;;18.20;45.66;99243.63;346091;28;1456;-72
2022/04/17 00:04:56;;;;;;;351.23;180.02;;;;;;;18.19;45.47;99236.66;347104;28;1033;-72
2022/04/17 00:05:07;;;;;;;352.20;186.30;;;;;;;18.17;45.31;99241.25;347664;28;800;-71
2022/04/17 00:05:17;;;;;;;350.95;186.25;;;;;;;18.16;45.58;99236.91;346235;28;880;-72
2022/04/17 00:05:28;;;;;;;348.20;184.00;;;;;;;18.16;45.49;99239.56;343519;28;1482;-73
2022/04/17 00:05:38;;;;;;;346.63;182.07;;;;;;;18.18;45.59;99237.63;347563;28;1093;-72
2022/04/17 00:05:50;;;;;;;347.98;183.63;;;;;;;18.19;45.57;99238.47;345898;28;1649;-72
2022/04/17 00:06:00;;;;;;;350.27;185.32;;;;;;;18.20;45.58;99246.28;349301;28;848;-72
2022/04/17 00:06:12;;;;;;;348.38;185.70;;;;;;;18.19;45.59;99244.63;346237;28;1220;-72
2022/04/17 00:06:23;;;;;;;348.98;188.38;;;;;;;18.19;45.65;99241.97;344896;28;1289;-72
2022/04/17 00:06:33;;;;;;;349.23;183.33;;;;;;;18.18;45.07;99240.28;347515;28;1362;-73
2022/04/17 00:06:43;;;;;;;348.92;181.57;;;;;;;18.19;45.43;99249.06;345895;28;1891;-73
2022/04/17 00:06:54;;;;;;;346.60;180.80;;;;;;;18.18;45.38;99237.63;345881;28;1821;-73
2022/04/17 00:07:05;;;;;;;346.17;181.88;;;;;;;18.19;45.43;99247.25;344758;28;1588;-72
2022/04/17 00:07:15;;;;;;;348.20;183.93;;;;;;;18.18;45.53;99242.94;344719;28;1274;-72
2022/04/17 00:07:25;;;;;;;349.55;182.55;;;;;;;18.18;45.59;99236.78;346160;28;1237;-72
2022/04/17 00:07:36;;;;;;;351.77;184.87;;;;;;;18.19;45.64;99243.78;346339;28;1115;-72
2022/04/17 00:07:46;;;;;;;354.55;187.45;;;;;;;18.15;45.44;99240.50;343540;28;1444;-72
2022/04/17 00:07:57;;;;;;;356.13;190.20;;;;;;;18.16;45.59;99239.56;343505;28;1208;-72
2022/04/17 00:08:07;;;;;;;355.27;185.90;;;;;;;18.18;45.45;99248.22;346190;28;1226;-72
2022/04/17 00:08:18;;;;;;;351.53;180.17;;;;;;;18.19;45.48;99239.31;345814;28;844;-72
2022/04/17 00:08:28;;;;;;;350.13;180.27;;;;;;;18.16;45.55;99234.25;346461;28;892;-72
2022/04/17 00:08:39;;;;;;;348.10;183.00;;;;;;;18.16;45.50;99244.84;345984;28;1620;-72
2022/04/17 00:08:49;;;;;;;349.27;184.00;;;;;;;18.15;45.50;99237.88;346677;28;1806;-72
2022/04/17 00:09:00;;;;;;;349.20;182.80;;;;;;;18.16;45.62;99239.56;343564;28;1468;-72
2022/04/17 00:09:11;;;;;;;349.30;180.45;;;;;;;18.15;45.72;99237.88;344474;28;833;-72
2022/04/17 00:09:22;;;;;;;349.58;180.08;;;;;;;18.15;45.67;99239.69;346352;28;868;-72
2022/04/17 00:09:33;;;;;;;349.83;180.27;;;;;;;18.16;45.56;99236.06;346325;28;805;-71
2022/04/17 00:09:43;;;;;;;351.90;182.02;;;;;;;18.18;45.46;99234.97;346639;28;935;-71
2022/04/17 00:09:54;;;;;;;351.33;184.25;;;;;;;18.20;45.41;99240.13;345318;28;1355;-72
2022/04/17 00:10:05;;;;;;;350.67;185.50;;;;;;;18.22;45.47;99241.69;344874;28;797;-72
2022/04/17 00:10:16;;;;;;;349.58;188.00;;;;;;;18.24;45.52;99242.41;344856;28;1265;-72
2022/04/17 00:10:27;;;;;;;349.95;187.35;;;;;;;18.23;45.23;99240.72;345616;28;1156;-71
2022/04/17 00:10:37;;;;;;;354.03;190.70;;;;;;;18.24;45.37;99237.13;348965;28;882;-71
2022/04/17 00:10:48;;;;;;;353.27;189.43;;;;;;;18.23;45.27;99235.44;346833;28;1601;-71
2022/04/17 00:10:58;;;;;;;351.87;190.33;;;;;;;18.24;45.47;99237.13;343860;28;1706;-71
2022/04/17 00:11:09;;;;;;;348.92;183.82;;;;;;;18.25;45.64;99240.63;344975;28;963;-71
2022/04/17 00:11:19;;;;;;;346.92;181.98;;;;;;;18.26;45.37;99239.66;345924;28;999;-71
2022/04/17 00:11:30;;;;;;;347.27;181.33;;;;;;;18.24;45.40;99242.41;345095;28;778;-71
2022/04/17 00:11:42;;;;;;;347.57;180.43;;;;;;;18.22;45.55;99236.41;342146;28;1334;-72
2022/04/17 00:11:52;;;;;;;351.77;182.50;;;;;;;18.23;45.37;99245.19;346113;28;1286;-72
2022/04/17 00:12:02;;;;;;;352.65;184.57;;;;;;;18.20;45.24;99238.31;346076;28;1094;-72
2022/04/17 00:12:13;;;;;;;354.20;189.17;;;;;;;18.19;45.41;99239.31;346263;28;829;-72
2022/04/17 00:12:23;;;;;;;353.55;190.18;;;;;;;18.19;45.48;99239.31;346130;28;928;-72
2022/04/17 00:12:34;;;;;;;351.73;186.50;;;;;;;18.17;45.34;99237.75;344944;28;1282;-72
2022/04/17 00:12:44;;;;;;;349.48;183.63;;;;;;;18.16;45.40;99239.56;342357;28;900;-72
2022/04/17 00:12:55;;;;;;;349.27;182.80;;;;;;;18.15;45.39;99245.81;342205;28;778;-72
2022/04/17 00:13:05;;;;;;;349.83;183.20;;;;;;;18.15;45.41;99242.31;344936;28;1283;-72
2022/04/17 00:13:16;;;;;;;350.03;183.07;;;;;;;18.16;45.41;99239.56;345366;28;1165;-72
2022/04/17 00:13:26;;;;;;;348.60;181.63;;;;;;;18.13;45.29;99238.94;345726;28;1705;-72
2022/04/17 00:13:36;;;;;;;348.47;181.30;;;;;;;18.11;45.41;99240.88;344302;28;1164;-72
2022/04/17 00:13:48;;;;;;;348.77;183.48;;;;;;;18.08;45.38;99239.31;342162;28;1243;-72
2022/04/17 00:13:59;;;;;;;351.90;185.88;;;;;;;18.08;45.48;99246.41;343018;28;845;-72
2022/04/17 00:14:10;;;;;;;350.48;183.93;;;;;;;18.08;45.62;99241.94;349138;28;1507;-72
2022/04/17 00:14:21;;;;;;;348.98;179.60;;;;;;;18.09;45.81;99243.63;347627;28;852;-72
2022/04/17 00:14:31;;;;;;;347.52;180.05;;;;;;;18.08;45.70;99241.09;343870;28;1275;-72
2022/04/17 00:14:43;;;;;;;347.35;178.80;;;;;;;18.07;45.55;99237.63;343568;28;1418;-72
2022/04/17 00:14:55;;;;;;;349.85;181.07;;;;;;;18.07;45.66;99240.25;342194;28;1100;-72
2022/04/17 00:15:06;;;;;;;353.63;185.55;;;;;;;18.06;45.59;99243.88;345060;28;999;-72
2022/04/17 00:15:17;;;;;;;354.05;188.65;;;;;;;18.07;45.58;99245.56;346957;28;1369;-72
2022/04/17 00:15:27;;;;;;;352.90;186.30;;;;;;;18.07;45.97;99240.25;346151;28;1402;-72
2022/04/17 00:15:38;;;;;;;350.63;182.57;;;;;;;18.09;45.60;99241.00;344756;28;976;-72
2022/04/17 00:15:49;;;;;;;349.07;179.80;;;;;;;18.09;45.77;99238.34;345819;28;1493;-72
2022/04/17 00:15:59;;;;;;;348.63;180.93;;;;;;;18.10;45.82;99240.03;346068;28;1425;-72
2022/04/17 00:16:10;;;;;;;350.20;184.47;;;;;;;18.12;45.71;99243.41;344825;28;1669;-72
2022/04/17 00:16:21;;;;;;;349.30;186.30;;;;;;;18.15;45.66;99232.56;343645;28;885;-72
2022/04/17 00:16:31;;;;;;;349.67;190.10;;;;;;;18.16;45.46;99244.84;343497;28;1321;-72
2022/04/17 00:16:42;;;;;;;350.40;188.43;;;;;;;18.17;45.43;99233.28;344968;28;1215;-72
2022/04/17 00:16:54;;;;;;;351.03;187.83;;;;;;;18.15;45.13;99235.22;344876;28;1094;-72
2022/04/17 00:17:04;;;;;;;350.30;182.25;;;;;;;18.16;45.48;99233.41;346245;28;754;-72
2022/04/17 00:17:15;;;;;;;349.67;183.33;;;;;;;18.12;45.34;99234.63;346214;28;1315;-73
2022/04/17 00:17:25;;;;;;;349.90;185.75;;;;;;;18.09;45.52;99238.34;344909;28;876;-71
2022/04/17 00:17:44;;;;;;;352.37;189.07;;;;;;;18.10;45.42;99245.31;346380;28;861;-71
2022/04/17 00:17:54;;;;;;;350.95;180.85;;;;;;;18.08;45.64;99231.34;346036;28;857;-71
2022/04/17 00:18:06;;;;;;;348.45;176.88;;;;;;;18.07;45.64;99244.72;346111;28;1250;-71
2022/04/17 00:18:17;;;;;;;350.02;178.52;;;;;;;18.03;45.77;99238.81;344140;28;1547;-71
2022/04/17 00:18:27;;;;;;;350.83;177.60;;;;;;;18.04;45.10;99243.16;346112;28;1231;-71
2022/04/17 00:18:38;;;;;;;350.75;175.63;;;;;;;18.03;45.72;99238.81;344819;28;801;-72
2022/04/17 00:18:48;;;;;;;349.30;175.83;;;;;;;18.04;45.62;99235.22;346510;28;1180;-72
2022/04/17 00:18:59;;;;;;;347.35;177.10;;;;;;;18.03;45.68;99238.81;346237;28;856;-71
2022/04/17 00:19:09;;;;;;;348.87;179.87;;;;;;;18.05;45.77;99242.19;348844;28;1303;-71
2022/04/17 00:19:20;;;;;;;351.37;184.40;;;;;;;18.07;45.74;99240.25;346724;28;1158;-71
2022/04/17 00:19:30;;;;;;;353.95;185.30;;;;;;;18.10;45.45;99242.69;345353;28;1803;-71
2022/04/17 00:19:41;;;;;;;352.95;184.82;;;;;;;18.11;45.72;99231.13;344937;28;987;-71
2022/04/17 00:19:51;;;;;;;352.37;186.53;;;;;;;18.14;45.78;99236.19;341998;28;889;-71
2022/04/17 00:20:02;;;;;;;352.45;188.48;;;;;;;18.15;45.59;99237.88;344586;28;1545;-72
2022/04/17 00:20:13;;;;;;;354.50;186.50;;;;;;;18.17;45.65;99240.41;347522;28;2247;-72
2022/04/17 00:20:24;;;;;;;352.65;184.48;;;;;;;18.19;45.56;99238.47;348691;28;876;-72
2022/04/17 00:20:34;;;;;;;353.00;182.67;;;;;;;18.18;45.54;99232.34;347605;28;1006;-72
2022/04/17 00:20:44;;;;;;;350.63;181.85;;;;;;;18.20;45.25;99240.97;344969;28;1397;-72
2022/04/17 00:20:55;;;;;;;350.63;181.33;;;;;;;18.20;45.55;99240.97;346531;28;1188;-72
2022/04/17 00:21:08;;;;;;;346.90;181.65;;;;;;;18.20;45.56;99238.31;345645;28;2229;-72
2022/04/17 00:21:20;;;;;;;347.27;181.55;;;;;;;18.21;45.62;99237.34;345489;28;1671;-72
2022/04/17 00:21:31;;;;;;;347.10;178.10;;;;;;;18.23;45.80;99240.72;346182;28;2039;-72
2022/04/17 00:21:43;;;;;;;344.95;178.30;;;;;;;18.24;45.33;99230.97;344680;28;1294;-72
2022/04/17 00:21:53;;;;;;;344.00;178.15;;;;;;;18.26;45.44;99245.78;344875;28;1245;-72
2022/04/17 00:22:03;;;;;;;345.90;181.37;;;;;;;18.26;45.59;99235.19;344913;28;797;-72
2022/04/17 00:22:14;;;;;;;348.23;183.07;;;;;;;18.26;45.67;99235.19;344894;28;846;-72
2022/04/17 00:22:25;;;;;;;351.75;187.10;;;;;;;18.27;45.42;99239.53;344923;28;1247;-73
2022/04/17 00:22:35;;;;;;;349.73;185.45;;;;;;;18.29;45.55;99242.91;343505;28;1906;-72
2022/04/17 00:22:46;;;;;;;349.42;184.70;;;;;;;18.28;45.68;99238.56;346292;28;856;-72
2022/04/17 00:22:57;;;;;;;349.75;188.57;;;;;;;18.29;45.31;99240.25;344754;28;1110;-72
2022/04/17 00:23:07;;;;;;;350.93;190.40;;;;;;;18.32;45.42;99233.03;345934;28;2503;-72
2022/04/17 00:23:18;;;;;;;352.43;192.93;;;;;;;18.32;45.47;99243.63;346781;28;1503;-72
2022/04/17 00:23:28;;;;;;;351.77;189.63;;;;;;;18.33;45.47;99240.00;343646;28;1432;-72
2022/04/17 00:23:38;;;;;;;352.57;187.77;;;;;;;18.33;45.67;99234.72;344847;28;1203;-72
2022/04/17 00:23:49;;;;;;;352.90;188.93;;;;;;;18.33;45.48;99240.00;344943;28;889;-72
2022/04/17 00:23:59;;;;;;;350.57;186.90;;;;;;;18.34;45.56;99237.25;346198;28;924;-72
2022/04/17 00:24:10;;;;;;;347.20;186.25;;;;;;;18.34;45.48;99241.69;345026;28;1407;-72
2022/04/17 00:24:20;;;;;;;344.70;181.93;;;;;;;18.35;45.50;99238.94;343624;28;868;-72
2022/04/17 00:24:31;;;;;;;345.25;183.88;;;;;;;18.36;45.53;99243.28;343617;28;909;-72
2022/04/17 00:24:42;;;;;;;346.33;185.73;;;;;;;18.36;45.51;99235.31;346148;28;1216;-72
2022/04/17 00:24:52;;;;;;;345.45;185.38;;;;;;;18.36;45.69;99240.63;346445;28;830;-73
2022/04/17 00:25:03;;;;;;;346.58;184.75;;;;;;;18.37;45.66;99236.16;344714;28;1096;-73
2022/04/17 00:25:14;;;;;;;346.67;186.77;;;;;;;18.35;45.64;99235.44;343987;28;1135;-72
2022/04/17 00:25:24;;;;;;;349.00;188.43;;;;;;;18.36;45.73;99239.78;344845;28;1210;-73
2022/04/17 00:25:35;;;;;;;349.80;190.43;;;;;;;18.37;45.79;99238.81;348918;28;1218;-72
2022/04/17 00:25:45;;;;;;;350.80;189.93;;;;;;;18.38;45.68;99240.50;345264;28;1480;-72
2022/04/17 00:25:55;;;;;;;352.92;193.43;;;;;;;18.37;45.54;99237.00;345896;28;860;-73
2022/04/17 00:26:06;;;;;;;354.93;193.73;;;;;;;18.37;45.78;99236.16;344775;28;1203;-72
2022/04/17 00:26:16;;;;;;;354.02;191.80;;;;;;;18.36;45.74;99239.78;344351;28;742;-72
2022/04/17 00:26:27;;;;;;;353.10;189.97;;;;;;;18.33;45.42;99240.00;347510;28;1113;-72
2022/04/17 00:26:38;;;;;;;352.90;189.77;;;;;;;18.27;45.59;99236.88;344834;28;1244;-72
2022/04/17 00:26:48;;;;;;;353.83;192.82;;;;;;;18.29;45.60;99242.06;344194;28;1785;-72
2022/04/17 00:27:00;;;;;;;351.93;192.73;;;;;;;18.30;45.53;99241.09;342159;28;1298;-72
2022/04/17 00:27:10;;;;;;;351.38;189.00;;;;;;;18.32;45.64;99239.19;344947;28;872;-72
2022/04/17 00:27:21;;;;;;;352.45;189.70;;;;;;;18.33;45.54;99237.38;344677;28;829;-72
2022/04/17 00:27:31;;;;;;;354.00;193.80;;;;;;;18.34;45.51;99239.91;344986;28;834;-72
2022/04/17 00:27:42;;;;;;;353.08;195.25;;;;;;;18.33;45.72;99240.84;344780;28;841;-72
2022/04/17 00:27:52;;;;;;;353.17;195.87;;;;;;;18.35;45.53;99243.38;345833;28;1487;-72
2022/04/17 00:28:04;;;;;;;352.98;194.55;;;;;;;18.35;45.41;99238.09;346878;28;1270;-72
2022/04/17 00:28:15;;;;;;;354.00;193.10;;;;;;;18.35;45.41;99233.63;343114;28;1311;-72
2022/04/17 00:28:25;;;;;;;352.80;190.80;;;;;;;18.36;45.32;99239.78;343514;28;750;-72
2022/04/17 00:28:35;;;;;;;349.00;187.53;;;;;;;18.35;45.49;99241.59;342099;28;1138;-72
2022/04/17 00:28:46;;;;;;;345.97;185.23;;;;;;;18.36;45.57;99239.78;344931;28;1284;-72
2022/04/17 00:28:58;;;;;;;347.50;186.73;;;;;;;18.34;45.66;99245.19;345363;28;1198;-72
2022/04/17 00:29:08;;;;;;;350.30;189.77;;;;;;;18.35;45.80;99243.38;346203;28;935;-72
2022/04/17 00:29:18;;;;;;;349.63;192.35;;;;;;;18.33;45.85;99240.84;344859;28;1216;-72
2022/04/17 00:29:29;;;;;;;349.77;194.80;;;;;;;18.33;46.51;99240.84;346489;28;1301;-72
2022/04/17 00:29:39;;;;;;;352.80;198.37;;;;;;;18.33;46.33;99243.50;347713;28;1186;-72
2022/04/17 00:29:50;;;;;;;353.50;199.90;;;;;;;18.28;46.52;99241.22;347825;28;1887;-72
2022/04/17 00:30:01;;;;;;;356.23;200.90;;;;;;;18.32;46.72;99243.63;346551;28;1731;-72
2022/04/17 00:30:11;;;;;;;352.52;194.23;;;;;;;18.30;47.09;99241.09;345951;28;2482;-72
2022/04/17 00:30:22;;;;;;;353.27;190.63;;;;;;;18.30;47.31;99241.09;344814;28;1070;-72
2022/04/17 00:30:32;;;;;;;352.15;193.35;;;;;;;18.28;47.73;99241.22;346188;28;1015;-72
2022/04/17 00:30:43;;;;;;;353.00;194.23;;;;;;;18.27;48.05;99242.19;347244;28;1621;-72
2022/04/17 00:30:54;;;;;;;351.83;192.88;;;;;;;18.27;48.01;99244.00;346140;28;1195;-72
2022/04/17 00:31:05;;;;;;;352.40;189.00;;;;;;;18.25;48.23;99249.41;347708;28;959;-72
2022/04/17 00:31:15;;;;;;;352.60;192.20;;;;;;;18.24;48.70;99241.56;343509;28;916;-72
2022/04/17 00:31:25;;;;;;;354.10;194.63;;;;;;;18.18;48.94;99242.94;343412;28;1951;-72
2022/04/17 00:31:36;;;;;;;351.23;195.47;;;;;;;18.16;48.99;99250.16;345823;28;1307;-72
2022/04/17 00:31:47;;;;;;;352.38;198.68;;;;;;;18.14;49.26;99244.13;346277;28;1341;-72
2022/04/17 00:31:57;;;;;;;350.45;195.50;;;;;;;18.13;49.51;99239.78;347020;28;1212;-72
2022/04/17 00:32:08;;;;;;;351.40;192.23;;;;;;;18.12;49.51;99243.41;344874;28;826;-72
2022/04/17 00:32:18;;;;;;;350.45;187.88;;;;;;;18.10;49.70;99245.31;341729;28;889;-72
2022/04/17 00:32:31;;;;;;;353.38;192.40;;;;;;;18.10;49.76;99245.31;340980;29;876;-72
2022/04/17 00:32:41;;;;;;;351.48;187.63;;;;;;;18.10;49.87;99247.97;344150;28;1404;-71
2022/04/17 00:32:52;;;;;;;352.35;188.18;;;;;;;18.09;49.93;99241.00;344402;28;1286;-71
2022/04/17 00:33:02;;;;;;;350.23;186.77;;;;;;;18.09;50.04;99242.78;346093;28;1327;-71
2022/04/17 00:33:13;;;;;;;351.27;191.15;;;;;;;18.10;49.96;99240.03;342401;28;1362;-71
2022/04/17 00:33:23;;;;;;;351.10;191.07;;;;;;;18.09;49.89;99246.28;346071;28;1440;-71
2022/04/17 00:33:34;;;;;;;354.45;191.35;;;;;;;18.10;50.00;99242.69;346205;28;1227;-71
2022/04/17 00:33:44;;;;;;;353.43;189.87;;;;;;;18.11;49.98;99248.81;347195;28;844;-71
2022/04/17 00:33:54;;;;;;;353.00;188.10;;;;;;;18.11;49.90;99236.41;344914;28;1264;-71
2022/04/17 00:34:05;;;;;;;351.80;190.20;;;;;;;18.11;49.59;99244.38;348811;28;1365;-71
2022/04/17 00:34:15;;;;;;;352.50;191.97;;;;;;;18.12;49.47;99240.75;346257;28;889;-71
2022/04/17 00:34:26;;;;;;;352.17;191.35;;;;;;;18.11;49.46;99236.41;347482;28;1370;-71
2022/04/17 00:34:37;;;;;;;350.95;189.48;;;;;;;18.13;49.51;99242.44;347374;28;1161;-71
2022/04/17 00:34:47;;;;;;;350.67;186.93;;;;;;;18.13;49.58;99247.75;344687;28;1157;-71
2022/04/17 00:35:01;;;;;;;351.47;192.17;;;;;;;18.11;49.36;99241.72;344906;28;861;-71
2022/04/17 00:35:11;;;;;;;351.70;194.70;;;;;;;18.13;49.23;99242.44;343367;28;1565;-71
2022/04/17 00:35:21;;;;;;;350.75;192.10;;;;;;;18.14;49.20;99230.88;343526;28;1215;-71
2022/04/17 00:35:32;;;;;;;350.53;190.37;;;;;;;18.15;49.11;99243.16;344654;28;1357;-71
2022/04/17 00:35:44;;;;;;;350.38;188.25;;;;;;;18.14;48.94;99236.19;344782;28;1533;-71
2022/04/17 00:35:55;;;;;;;353.80;191.38;;;;;;;18.15;49.02;99240.50;346231;28;963;-71
2022/04/17 00:36:05;;;;;;;354.23;192.50;;;;;;;18.15;48.85;99237.03;343414;28;892;-71
2022/04/17 00:36:16;;;;;;;353.07;191.33;;;;;;;18.16;48.87;99230.75;343676;28;876;-71
2022/04/17 00:36:26;;;;;;;350.25;191.05;;;;;;;18.17;49.06;99240.41;344547;28;1354;-71
2022/04/17 00:36:36;;;;;;;352.23;193.60;;;;;;;18.18;48.94;99245.56;343575;28;1200;-71
2022/04/17 00:36:47;;;;;;;351.60;193.13;;;;;;;18.14;48.91;99246.78;344347;28;793;-71
2022/04/17 00:37:00;;;;;;;353.17;192.80;;;;;;;18.12;49.05;99238.09;346265;28;1110;-71
2022/04/17 00:37:11;;;;;;;353.38;189.05;;;;;;;18.11;49.19;99231.13;347715;28;872;-71
2022/04/17 00:37:21;;;;;;;352.37;187.40;;;;;;;18.12;49.01;99247.84;344821;28;873;-71
2022/04/17 00:37:32;;;;;;;352.80;188.95;;;;;;;18.10;49.04;99245.31;345813;28;1471;-71
2022/04/17 00:37:43;;;;;;;354.37;190.63;;;;;;;18.10;49.22;99242.69;346972;28;1367;-71
2022/04/17 00:37:53;;;;;;;355.13;191.55;;;;;;;18.09;49.24;99241.00;346794;28;920;-71
2022/04/17 00:38:04;;;;;;;353.45;188.73;;;;;;;18.09;49.04;99238.34;347635;28;1088;-71
2022/04/17 00:38:15;;;;;;;352.00;189.77;;;;;;;18.09;49.28;99240.16;345023;28;932;-71
2022/04/17 00:38:25;;;;;;;352.10;186.63;;;;;;;18.09;49.16;99243.63;345088;28;853;-71
2022/04/17 00:38:35;;;;;;;352.83;188.85;;;;;;;18.09;49.13;99248.09;343655;28;2145;-71
2022/04/17 00:38:46;;;;;;;351.70;187.47;;;;;;;18.09;49.10;99242.78;342967;28;1800;-71
2022/04/17 00:38:56;;;;;;;350.42;187.45;;;;;;;18.08;49.29;99244.59;345421;28;1490;-71
2022/04/17 00:39:07;;;;;;;349.50;184.97;;;;;;;18.06;49.17;99246.53;344954;28;948;-71
2022/04/17 00:39:17;;;;;;;350.65;184.20;;;;;;;18.06;49.26;99246.53;343462;28;1535;-71
2022/04/17 00:39:28;;;;;;;355.50;188.80;;;;;;;18.06;49.58;99249.16;343503;28;1344;-71
2022/04/17 00:39:40;;;;;;;358.90;191.82;;;;;;;18.07;49.44;99248.22;345092;28;1331;-71
2022/04/17 00:39:51;;;;;;;357.60;189.40;;;;;;;18.08;49.32;99241.09;347694;28;946;-71
2022/04/17 00:40:01;;;;;;;353.95;187.00;;;;;;;18.09;49.39;99248.94;346230;28;935;-71
2022/04/17 00:40:12;;;;;;;352.53;185.20;;;;;;;18.07;49.86;99250.84;342997;28;1910;-71
2022/04/17 00:40:22;;;;;;;352.80;186.77;;;;;;;18.09;49.51;99250.75;342215;28;1869;-71
2022/04/17 00:40:32;;;;;;;353.97;187.10;;;;;;;18.10;49.69;99247.13;342120;28;1037;-71
2022/04/17 00:40:43;;;;;;;354.75;191.02;;;;;;;18.09;49.73;99251.59;345075;28;1509;-71
2022/04/17 00:40:56;;;;;;;355.43;194.50;;;;;;;18.08;49.74;99247.25;348298;28;1270;-71
2022/04/17 00:41:06;;;;;;;354.25;196.35;;;;;;;18.07;49.85;99250.84;346308;28;845;-71
2022/04/17 00:41:17;;;;;;;350.83;191.70;;;;;;;18.03;49.95;99249.41;344722;28;1295;-71
2022/04/17 00:41:27;;;;;;;349.30;186.13;;;;;;;18.03;49.95;99244.13;347793;28;836;-71
2022/04/17 00:41:38;;;;;;;348.58;185.05;;;;;;;18.04;49.87;99250.25;344931;28;1468;-71
2022/04/17 00:41:49;;;;;;;347.75;184.52;;;;;;;18.03;50.06;99249.41;344876;28;1454;-71
2022/04/17 00:42:02;;;;;;;350.40;189.53;;;;;;;18.03;49.96;99244.13;346125;28;1289;-71
2022/04/17 00:42:12;;;;;;;351.90;188.60;;;;;;;18.04;49.87;99251.09;345720;28;1619;-71
2022/04/17 00:42:22;;;;;;;351.80;185.60;;;;;;;18.04;50.04;99250.25;346442;28;1158;-71
2022/04/17 00:42:33;;;;;;;350.05;187.02;;;;;;;18.02;49.95;99247.72;347002;28;1414;-71
2022/04/17 00:42:44;;;;;;;350.13;186.20;;;;;;;18.01;50.10;99251.34;345977;28;1922;-71
2022/04/17 00:42:55;;;;;;;352.58;188.88;;;;;;;18.02;50.16;99247.72;343819;28;1524;-71
2022/04/17 00:43:20;;;;;;;353.33;185.48;;;;;;;18.02;50.63;99246.88;344742;28;1409;-72
2022/04/17 00:43:33;;;;;;;351.75;187.43;;;;;;;18.01;50.86;99239.91;346195;28;1589;-72
2022/04/17 00:43:47;;;;;;;351.33;188.07;;;;;;;18.00;50.79;99247.00;346196;28;935;-72
2022/04/17 00:43:57;;;;;;;350.90;189.23;;;;;;;17.99;51.05;99242.66;345904;28;1917;-72
2022/04/17 00:44:11;;;;;;;352.23;191.60;;;;;;;17.98;51.06;99251.56;344965;28;872;-72
2022/04/17 00:44:22;;;;;;;352.58;191.75;;;;;;;17.96;51.27;99245.53;341745;28;885;-72
2022/04/17 00:44:32;;;;;;;351.73;188.50;;;;;;;17.92;51.46;99249.38;344655;28;1093;-72
2022/04/17 00:44:43;;;;;;;352.33;186.17;;;;;;;17.94;51.44;99239.53;344901;28;842;-72
2022/04/17 00:44:53;;;;;;;350.98;185.95;;;;;;;17.94;51.23;99250.97;346413;28;821;-72
2022/04/17 00:45:04;;;;;;;350.87;185.67;;;;;;;17.93;51.49;99248.44;344889;28;915;-72
2022/04/17 00:45:15;;;;;;;351.33;189.93;;;;;;;17.91;51.76;99247.69;346333;28;861;-72
2022/04/17 00:45:25;;;;;;;350.08;188.63;;;;;;;17.89;51.92;99246.97;343554;28;802;-72
2022/04/17 00:45:36;;;;;;;350.08;187.35;;;;;;;17.88;52.05;99246.13;347561;28;1037;-72
2022/04/17 00:45:46;;;;;;;348.30;180.13;;;;;;;17.87;52.04;99248.91;347879;28;1578;-72
2022/04/17 00:45:57;;;;;;;347.52;179.23;;;;;;;17.85;52.24;99245.53;346460;28;782;-72
2022/04/17 00:46:07;;;;;;;348.33;180.73;;;;;;;17.84;52.36;99241.19;345341;28;1231;-73
2022/04/17 00:46:18;;;;;;;349.02;182.57;;;;;;;17.85;52.04;99245.53;342732;28;1333;-73
2022/04/17 00:46:28;;;;;;;348.33;180.07;;;;;;;17.84;52.17;99239.38;342328;28;1965;-72
2022/04/17 00:46:39;;;;;;;347.53;181.83;;;;;;;17.83;52.19;99248.28;344830;28;1212;-72
2022/04/17 00:46:50;;;;;;;349.45;184.32;;;;;;;17.83;52.42;99247.44;345800;28;1080;-71
2022/04/17 00:47:00;;;;;;;352.50;186.70;;;;;;;17.80;52.33;99243.22;342973;28;1503;-72
2022/04/17 00:47:15;;;;;;;354.52;188.23;;;;;;;17.82;52.63;99245.75;345202;28;1457;-72
2022/04/17 00:47:26;;;;;;;355.58;188.23;;;;;;;17.82;52.41;99251.03;346327;28;987;-71
2022/04/17 00:47:36;;;;;;;355.58;190.10;;;;;;;17.83;52.64;99252.72;342762;28;786;-71
2022/04/17 00:47:47;;;;;;;353.57;185.77;;;;;;;17.82;52.72;99248.41;344677;28;1267;-72
2022/04/17 00:47:57;;;;;;;353.27;183.27;;;;;;;17.81;52.56;99252.00;346303;28;901;-71
2022/04/17 00:48:08;;;;;;;353.63;184.47;;;;;;;17.77;52.82;99248.75;345383;28;1195;-71
2022/04/17 00:48:18;;;;;;;354.25;187.50;;;;;;;17.74;52.88;99243.72;344893;28;1243;-71
2022/04/17 00:48:29;;;;;;;356.00;191.50;;;;;;;17.76;52.95;99248.91;347544;28;1176;-73
2022/04/17 00:48:39;;;;;;;355.92;191.43;;;;;;;17.75;53.23;99255.16;347529;28;1219;-72
2022/04/17 00:48:50;;;;;;;355.23;191.73;;;;;;;17.73;53.10;99249.13;347065;28;1406;-72
2022/04/17 00:49:00;;;;;;;353.83;191.43;;;;;;;17.75;53.04;99244.56;344959;28;766;-72
2022/04/17 00:49:10;;;;;;;352.33;190.00;;;;;;;17.75;53.19;99250.69;345356;28;1099;-72
2022/04/17 00:49:21;;;;;;;353.57;189.73;;;;;;;17.74;53.16;99248.16;345542;28;1600;-72
2022/04/17 00:49:31;;;;;;;351.77;187.82;;;;;;;17.73;53.42;99252.63;347767;28;977;-72
2022/04/17 00:49:43;;;;;;;351.00;182.95;;;;;;;17.70;53.33;99249.38;346387;28;825;-72
2022/04/17 00:49:53;;;;;;;350.67;182.02;;;;;;;17.69;53.39;99253.81;343186;28;1353;-72